createdAt,value
2018-03-22T00:00:24.551Z,0
2018-03-22T00:00:50.687Z,0
2018-03-22T00:01:16.821Z,0
2018-03-22T00:01:42.967Z,0
2018-03-22T00:02:09.124Z,0
2018-03-22T00:02:35.251Z,0
2018-03-22T00:03:01.389Z,0
2018-03-22T00:03:27.526Z,0
2018-03-22T00:03:53.656Z,0
2018-03-22T00:04:19.817Z,0
2018-03-22T00:04:45.957Z,0
2018-03-22T00:05:12.100Z,0
2018-03-22T00:05:38.237Z,0
2018-03-22T00:06:04.366Z,0
2018-03-22T00:06:30.561Z,0
2018-03-22T00:06:56.698Z,0
2018-03-22T00:07:22.859Z,0
2018-03-22T00:07:48.987Z,0
2018-03-22T00:08:15.124Z,0
2018-03-22T00:08:41.254Z,0
2018-03-22T00:09:07.386Z,0
2018-03-22T00:09:33.533Z,0
2018-03-22T00:09:59.684Z,0
2018-03-22T00:10:25.804Z,0
2018-03-22T00:10:51.996Z,0
2018-03-22T00:11:18.132Z,0
2018-03-22T00:11:44.264Z,0
2018-03-22T00:12:10.413Z,0
2018-03-22T00:12:36.539Z,0
2018-03-22T00:13:02.679Z,0
2018-03-22T00:13:28.813Z,0
2018-03-22T00:13:54.938Z,0
2018-03-22T00:14:21.079Z,0
2018-03-22T00:14:47.244Z,0
2018-03-22T00:15:13.384Z,0
2018-03-22T00:15:39.518Z,0
2018-03-22T00:16:05.657Z,0
2018-03-22T00:16:31.801Z,0
2018-03-22T00:16:57.940Z,0
2018-03-22T00:17:24.106Z,0
2018-03-22T00:17:50.239Z,0
2018-03-22T00:18:16.394Z,0
2018-03-22T00:18:42.533Z,0
2018-03-22T00:19:08.672Z,0
2018-03-22T00:19:34.807Z,0
2018-03-22T00:20:00.946Z,0
2018-03-22T00:20:27.083Z,0
2018-03-22T00:20:53.213Z,0
2018-03-22T00:21:19.349Z,0
2018-03-22T00:21:45.487Z,0
2018-03-22T00:22:11.629Z,0
2018-03-22T00:22:37.761Z,0
2018-03-22T00:23:03.897Z,0
2018-03-22T00:23:30.036Z,0
2018-03-22T00:23:56.172Z,0
2018-03-22T00:24:22.305Z,0
2018-03-22T00:24:48.440Z,0
2018-03-22T00:25:14.576Z,0
2018-03-22T00:25:40.715Z,0
2018-03-22T00:26:06.877Z,0
2018-03-22T00:26:33.022Z,0
2018-03-22T00:26:59.188Z,0
2018-03-22T00:27:25.317Z,0
2018-03-22T00:27:51.481Z,0
2018-03-22T00:28:17.614Z,0
2018-03-22T00:28:43.745Z,0
2018-03-22T00:29:09.883Z,0
2018-03-22T00:29:36.023Z,0
2018-03-22T00:30:02.159Z,0
2018-03-22T00:30:28.286Z,0
2018-03-22T00:30:54.426Z,0
2018-03-22T00:31:20.566Z,0
2018-03-22T00:31:46.705Z,0
2018-03-22T00:32:12.840Z,0
2018-03-22T00:32:38.982Z,0
2018-03-22T00:33:05.114Z,0
2018-03-22T00:33:31.242Z,0
2018-03-22T00:33:57.384Z,0
2018-03-22T00:34:23.516Z,0
2018-03-22T00:34:49.649Z,0
2018-03-22T00:35:15.788Z,0
2018-03-22T00:35:41.946Z,0
2018-03-22T00:36:08.085Z,0
2018-03-22T00:36:34.210Z,0
2018-03-22T00:37:00.349Z,0
2018-03-22T00:37:26.486Z,0
2018-03-22T00:37:52.625Z,0
2018-03-22T00:38:18.756Z,0
2018-03-22T00:38:44.896Z,0
2018-03-22T00:39:11.032Z,0
2018-03-22T00:39:37.170Z,0
2018-03-22T00:40:03.306Z,0
2018-03-22T00:40:29.469Z,0
2018-03-22T00:40:55.604Z,0
2018-03-22T00:41:21.740Z,0
2018-03-22T00:41:47.880Z,0
2018-03-22T00:42:14.014Z,0
2018-03-22T00:42:40.148Z,0
2018-03-22T00:43:06.286Z,0
2018-03-22T00:43:32.425Z,0
2018-03-22T00:43:58.561Z,0
2018-03-22T00:44:24.694Z,0
2018-03-22T00:44:50.831Z,0
2018-03-22T00:45:16.963Z,0
2018-03-22T00:45:43.121Z,0
2018-03-22T00:46:09.255Z,0
2018-03-22T00:46:35.412Z,0
2018-03-22T00:47:01.547Z,0
2018-03-22T00:47:27.715Z,0
2018-03-22T00:47:53.848Z,0
2018-03-22T00:48:19.980Z,0
2018-03-22T00:48:46.122Z,0
2018-03-22T00:49:12.261Z,0
2018-03-22T00:49:38.384Z,0
2018-03-22T00:50:04.522Z,0
2018-03-22T00:50:30.663Z,0
2018-03-22T00:50:56.844Z,0
2018-03-22T00:51:22.976Z,0
2018-03-22T00:51:49.111Z,0
2018-03-22T00:52:15.249Z,0
2018-03-22T00:52:41.388Z,0
2018-03-22T00:53:07.518Z,0
2018-03-22T00:53:33.653Z,0
2018-03-22T00:53:59.792Z,0
2018-03-22T00:54:25.943Z,0
2018-03-22T00:54:52.105Z,0
2018-03-22T00:55:18.244Z,0
2018-03-22T00:55:44.404Z,0
2018-03-22T00:56:10.550Z,0
2018-03-22T00:56:36.672Z,0
2018-03-22T00:57:02.807Z,0
2018-03-22T00:57:28.940Z,0
2018-03-22T00:57:55.080Z,0
2018-03-22T00:58:21.214Z,0
2018-03-22T00:58:47.352Z,0
2018-03-22T00:59:13.480Z,0
2018-03-22T00:59:39.645Z,0
2018-03-22T01:00:05.772Z,0
2018-03-22T01:00:31.909Z,0
2018-03-22T01:00:58.045Z,0
2018-03-22T01:01:24.181Z,0
2018-03-22T01:01:50.320Z,0
2018-03-22T01:02:16.459Z,0
2018-03-22T01:02:42.639Z,0
2018-03-22T01:03:08.758Z,0
2018-03-22T01:03:34.910Z,0
2018-03-22T01:04:01.073Z,0
2018-03-22T01:04:27.209Z,0
2018-03-22T01:04:53.351Z,0
2018-03-22T01:05:19.490Z,0
2018-03-22T01:05:45.658Z,0
2018-03-22T01:06:11.787Z,0
2018-03-22T01:06:37.947Z,0
2018-03-22T01:07:04.086Z,0
2018-03-22T01:07:30.244Z,0
2018-03-22T01:07:56.375Z,0
2018-03-22T01:08:22.518Z,0
2018-03-22T01:08:48.658Z,0
2018-03-22T01:09:14.815Z,0
2018-03-22T01:09:40.946Z,0
2018-03-22T01:10:07.092Z,0
2018-03-22T01:10:33.225Z,0
2018-03-22T01:10:59.364Z,0
2018-03-22T01:11:25.495Z,0
2018-03-22T01:11:51.641Z,0
2018-03-22T01:12:17.780Z,0
2018-03-22T01:12:43.915Z,0
2018-03-22T01:13:10.079Z,0
2018-03-22T01:13:36.211Z,0
2018-03-22T01:14:02.345Z,0
2018-03-22T01:14:28.501Z,0
2018-03-22T01:14:54.642Z,0
2018-03-22T01:15:20.777Z,0
2018-03-22T01:15:46.919Z,0
2018-03-22T01:16:13.052Z,0
2018-03-22T01:16:39.213Z,0
2018-03-22T01:17:05.365Z,0
2018-03-22T01:17:31.501Z,0
2018-03-22T01:17:57.697Z,0
2018-03-22T01:18:23.833Z,0
2018-03-22T01:18:49.966Z,0
2018-03-22T01:19:16.122Z,0
2018-03-22T01:19:42.259Z,0
2018-03-22T01:20:08.399Z,0
2018-03-22T01:20:34.535Z,0
2018-03-22T01:21:00.672Z,0
2018-03-22T01:21:26.805Z,0
2018-03-22T01:21:52.935Z,0
2018-03-22T01:22:19.098Z,0
2018-03-22T01:22:45.233Z,0
2018-03-22T01:23:11.379Z,0
2018-03-22T01:23:37.512Z,0
2018-03-22T01:24:03.652Z,0
2018-03-22T01:24:29.793Z,0
2018-03-22T01:24:55.929Z,0
2018-03-22T01:25:22.067Z,0
2018-03-22T01:25:48.193Z,0
2018-03-22T01:26:14.334Z,0
2018-03-22T01:26:40.464Z,0
2018-03-22T01:27:06.601Z,0
2018-03-22T01:27:32.736Z,0
2018-03-22T01:27:58.876Z,0
2018-03-22T01:28:25.031Z,0
2018-03-22T01:28:51.170Z,0
2018-03-22T01:29:17.306Z,0
2018-03-22T01:29:43.447Z,0
2018-03-22T01:30:09.606Z,0
2018-03-22T01:30:38.159Z,0
2018-03-22T01:31:04.324Z,0
2018-03-22T01:31:30.477Z,0
2018-03-22T01:31:56.615Z,0
2018-03-22T01:32:22.753Z,0
2018-03-22T01:32:48.890Z,0
2018-03-22T01:33:15.026Z,0
2018-03-22T01:33:41.182Z,0
2018-03-22T01:34:07.336Z,0
2018-03-22T01:34:33.476Z,0
2018-03-22T01:34:59.606Z,0
2018-03-22T01:35:25.745Z,0
2018-03-22T01:35:51.906Z,0
2018-03-22T01:36:18.042Z,0
2018-03-22T01:36:44.180Z,0
2018-03-22T01:37:10.316Z,0
2018-03-22T01:37:36.476Z,0
2018-03-22T01:38:02.608Z,0
2018-03-22T01:38:28.744Z,0
2018-03-22T01:38:54.882Z,0
2018-03-22T01:39:21.020Z,0
2018-03-22T01:39:47.163Z,0
2018-03-22T01:40:13.309Z,0
2018-03-22T01:40:39.452Z,0
2018-03-22T01:41:05.583Z,0
2018-03-22T01:41:31.719Z,0
2018-03-22T01:41:57.856Z,0
2018-03-22T01:42:23.991Z,0
2018-03-22T01:42:50.130Z,0
2018-03-22T01:43:16.268Z,0
2018-03-22T01:43:42.397Z,0
2018-03-22T01:44:08.564Z,0
2018-03-22T01:44:34.702Z,0
2018-03-22T01:45:00.841Z,0
2018-03-22T01:45:26.977Z,0
2018-03-22T01:45:53.111Z,0
2018-03-22T01:46:19.246Z,0
2018-03-22T01:46:45.382Z,0
2018-03-22T01:47:11.518Z,0
2018-03-22T01:47:37.650Z,0
2018-03-22T01:48:03.793Z,0
2018-03-22T01:48:29.952Z,0
2018-03-22T01:48:56.090Z,0
2018-03-22T01:49:22.228Z,0
2018-03-22T01:49:48.391Z,0
2018-03-22T01:50:14.521Z,0
2018-03-22T01:50:40.676Z,0
2018-03-22T01:51:06.813Z,0
2018-03-22T01:51:32.952Z,0
2018-03-22T01:51:59.088Z,0
2018-03-22T01:52:25.244Z,0
2018-03-22T01:52:51.382Z,0
2018-03-22T01:53:17.522Z,0
2018-03-22T01:53:43.657Z,0
2018-03-22T01:54:09.786Z,0
2018-03-22T01:54:35.925Z,0
2018-03-22T01:55:02.059Z,0
2018-03-22T01:55:28.202Z,0
2018-03-22T01:55:54.340Z,0
2018-03-22T01:56:20.475Z,0
2018-03-22T01:56:46.634Z,0
2018-03-22T01:57:12.770Z,0
2018-03-22T01:57:38.908Z,0
2018-03-22T01:58:05.042Z,0
2018-03-22T01:58:31.181Z,0
2018-03-22T01:58:57.357Z,0
2018-03-22T01:59:23.493Z,0
2018-03-22T01:59:49.627Z,0
2018-03-22T02:00:15.760Z,0
2018-03-22T02:00:41.906Z,0
2018-03-22T02:01:08.059Z,0
2018-03-22T02:01:34.253Z,0
2018-03-22T02:02:00.390Z,0
2018-03-22T02:02:26.522Z,0
2018-03-22T02:02:52.659Z,0
2018-03-22T02:03:18.790Z,0
2018-03-22T02:03:44.951Z,0
2018-03-22T02:04:11.112Z,0
2018-03-22T02:04:37.240Z,0
2018-03-22T02:05:03.372Z,0
2018-03-22T02:05:29.511Z,0
2018-03-22T02:05:55.639Z,0
2018-03-22T02:06:21.777Z,0
2018-03-22T02:06:47.909Z,0
2018-03-22T02:07:14.061Z,0
2018-03-22T02:07:40.198Z,0
2018-03-22T02:08:06.335Z,0
2018-03-22T02:08:32.475Z,0
2018-03-22T02:08:58.615Z,0
2018-03-22T02:09:24.745Z,0
2018-03-22T02:09:50.885Z,0
2018-03-22T02:10:17.039Z,0
2018-03-22T02:10:43.190Z,0
2018-03-22T02:11:09.352Z,0
2018-03-22T02:11:35.485Z,0
2018-03-22T02:12:01.625Z,0
2018-03-22T02:12:27.752Z,0
2018-03-22T02:12:53.920Z,0
2018-03-22T02:13:20.059Z,0
2018-03-22T02:13:46.195Z,0
2018-03-22T02:14:12.334Z,0
2018-03-22T02:14:38.490Z,0
2018-03-22T02:15:04.627Z,0
2018-03-22T02:15:30.755Z,0
2018-03-22T02:15:56.891Z,0
2018-03-22T02:16:23.051Z,0
2018-03-22T02:16:49.187Z,0
2018-03-22T02:17:15.325Z,0
2018-03-22T02:17:41.487Z,0
2018-03-22T02:18:07.619Z,0
2018-03-22T02:18:33.751Z,0
2018-03-22T02:18:59.910Z,0
2018-03-22T02:19:26.047Z,0
2018-03-22T02:19:52.182Z,0
2018-03-22T02:20:18.319Z,0
2018-03-22T02:20:44.453Z,0
2018-03-22T02:21:10.587Z,0
2018-03-22T02:21:36.721Z,0
2018-03-22T02:22:02.862Z,0
2018-03-22T02:22:29.021Z,0
2018-03-22T02:22:55.159Z,0
2018-03-22T02:23:21.338Z,0
2018-03-22T02:23:47.475Z,0
2018-03-22T02:24:13.639Z,0
2018-03-22T02:24:39.781Z,0
2018-03-22T02:25:05.964Z,0
2018-03-22T02:25:32.094Z,0
2018-03-22T02:25:58.266Z,0
2018-03-22T02:26:24.404Z,0
2018-03-22T02:26:50.562Z,0
2018-03-22T02:27:16.703Z,0
2018-03-22T02:27:42.835Z,0
2018-03-22T02:28:08.972Z,0
2018-03-22T02:28:35.107Z,0
2018-03-22T02:29:01.255Z,0
2018-03-22T02:29:27.407Z,0
2018-03-22T02:29:53.548Z,0
2018-03-22T02:30:19.679Z,0
2018-03-22T02:30:45.815Z,0
2018-03-22T02:31:11.952Z,0
2018-03-22T02:31:38.078Z,0
2018-03-22T02:32:04.216Z,0
2018-03-22T02:32:30.401Z,0
2018-03-22T02:32:56.533Z,0
2018-03-22T02:33:22.671Z,0
2018-03-22T02:33:48.805Z,0
2018-03-22T02:34:14.940Z,0
2018-03-22T02:34:41.079Z,0
2018-03-22T02:35:07.211Z,0
2018-03-22T02:35:33.399Z,0
2018-03-22T02:35:59.538Z,0
2018-03-22T02:36:25.675Z,0
2018-03-22T02:36:51.805Z,0
2018-03-22T02:37:17.943Z,0
2018-03-22T02:37:44.074Z,0
2018-03-22T02:38:10.206Z,0
2018-03-22T02:38:36.345Z,0
2018-03-22T02:39:02.476Z,0
2018-03-22T02:39:28.609Z,0
2018-03-22T02:39:54.759Z,0
2018-03-22T02:40:20.882Z,0
2018-03-22T02:40:47.046Z,0
2018-03-22T02:41:13.184Z,0
2018-03-22T02:41:39.327Z,0
2018-03-22T02:42:05.458Z,0
2018-03-22T02:42:31.634Z,0
2018-03-22T02:42:57.783Z,0
2018-03-22T02:43:23.908Z,0
2018-03-22T02:43:50.055Z,0
2018-03-22T02:44:16.196Z,0
2018-03-22T02:44:42.320Z,0
2018-03-22T02:45:08.462Z,0
2018-03-22T02:45:34.591Z,0
2018-03-22T02:46:00.722Z,0
2018-03-22T02:46:26.852Z,0
2018-03-22T02:46:53.038Z,0
2018-03-22T02:47:19.183Z,0
2018-03-22T02:47:45.339Z,0
2018-03-22T02:48:11.531Z,0
2018-03-22T02:48:37.706Z,0
2018-03-22T02:49:03.838Z,0
2018-03-22T02:49:29.979Z,0
2018-03-22T02:49:56.108Z,0
2018-03-22T02:50:22.247Z,0
2018-03-22T02:50:48.390Z,0
2018-03-22T02:51:14.519Z,0
2018-03-22T02:51:40.653Z,0
2018-03-22T02:52:06.789Z,0
2018-03-22T02:52:32.938Z,0
2018-03-22T02:52:59.075Z,0
2018-03-22T02:53:25.216Z,0
2018-03-22T02:53:51.344Z,0
2018-03-22T02:54:17.526Z,0
2018-03-22T02:54:43.665Z,0
2018-03-22T02:55:09.801Z,0
2018-03-22T02:55:35.931Z,0
2018-03-22T02:56:02.066Z,0
2018-03-22T02:56:28.201Z,0
2018-03-22T02:56:54.341Z,0
2018-03-22T02:57:20.498Z,0
2018-03-22T02:57:46.639Z,0
2018-03-22T02:58:12.797Z,0
2018-03-22T02:58:38.935Z,0
2018-03-22T02:59:05.093Z,0
2018-03-22T02:59:31.231Z,0
2018-03-22T02:59:57.363Z,0
2018-03-22T03:00:23.512Z,0
2018-03-22T03:00:49.632Z,0
2018-03-22T03:01:15.770Z,0
2018-03-22T03:01:41.906Z,0
2018-03-22T03:02:08.037Z,0
2018-03-22T03:02:34.180Z,0
2018-03-22T03:03:00.334Z,0
2018-03-22T03:03:26.467Z,0
2018-03-22T03:03:52.613Z,0
2018-03-22T03:04:18.746Z,0
2018-03-22T03:04:44.889Z,0
2018-03-22T03:05:11.047Z,0
2018-03-22T03:05:37.186Z,0
2018-03-22T03:06:03.320Z,0
2018-03-22T03:06:29.450Z,0
2018-03-22T03:06:55.587Z,0
2018-03-22T03:07:21.722Z,0
2018-03-22T03:07:47.907Z,0
2018-03-22T03:08:14.038Z,0
2018-03-22T03:08:40.186Z,0
2018-03-22T03:09:06.316Z,0
2018-03-22T03:09:32.477Z,0
2018-03-22T03:09:58.610Z,0
2018-03-22T03:10:24.747Z,0
2018-03-22T03:10:50.876Z,0
2018-03-22T03:11:17.022Z,0
2018-03-22T03:11:43.158Z,0
2018-03-22T03:12:09.296Z,0
2018-03-22T03:12:35.426Z,0
2018-03-22T03:13:01.565Z,0
2018-03-22T03:13:27.706Z,0
2018-03-22T03:13:53.839Z,0
2018-03-22T03:14:19.970Z,0
2018-03-22T03:14:46.113Z,0
2018-03-22T03:15:12.249Z,0
2018-03-22T03:15:38.381Z,0
2018-03-22T03:16:04.527Z,0
2018-03-22T03:16:30.661Z,0
2018-03-22T03:16:56.793Z,0
2018-03-22T03:17:22.929Z,0
2018-03-22T03:17:49.066Z,0
2018-03-22T03:18:15.222Z,0
2018-03-22T03:18:41.359Z,0
2018-03-22T03:19:07.494Z,0
2018-03-22T03:19:33.653Z,0
2018-03-22T03:19:59.785Z,0
2018-03-22T03:20:25.960Z,0
2018-03-22T03:20:52.053Z,0
2018-03-22T03:21:18.194Z,0
2018-03-22T03:21:44.332Z,0
2018-03-22T03:22:10.460Z,0
2018-03-22T03:22:36.596Z,0
2018-03-22T03:23:02.719Z,0
2018-03-22T03:23:28.857Z,0
2018-03-22T03:23:54.996Z,0
2018-03-22T03:24:21.136Z,0
2018-03-22T03:24:47.263Z,0
2018-03-22T03:25:13.401Z,0
2018-03-22T03:25:39.559Z,0
2018-03-22T03:26:05.691Z,0
2018-03-22T03:26:31.824Z,0
2018-03-22T03:26:57.971Z,0
2018-03-22T03:27:24.137Z,0
2018-03-22T03:27:50.272Z,0
2018-03-22T03:28:16.408Z,0
2018-03-22T03:28:42.539Z,0
2018-03-22T03:29:08.678Z,0
2018-03-22T03:29:34.802Z,0
2018-03-22T03:30:00.948Z,0
2018-03-22T03:30:27.170Z,0
2018-03-22T03:30:53.243Z,0
2018-03-22T03:31:19.385Z,0
2018-03-22T03:31:45.515Z,0
2018-03-22T03:32:11.655Z,0
2018-03-22T03:32:37.853Z,0
2018-03-22T03:33:03.945Z,0
2018-03-22T03:33:30.082Z,0
2018-03-22T03:33:56.219Z,0
2018-03-22T03:34:22.380Z,0
2018-03-22T03:34:48.511Z,0
2018-03-22T03:35:14.647Z,0
2018-03-22T03:35:40.783Z,0
2018-03-22T03:36:06.948Z,0
2018-03-22T03:36:33.077Z,0
2018-03-22T03:36:59.227Z,0
2018-03-22T03:37:25.355Z,0
2018-03-22T03:37:51.489Z,0
2018-03-22T03:38:17.628Z,0
2018-03-22T03:38:43.797Z,0
2018-03-22T03:39:09.925Z,0
2018-03-22T03:39:36.092Z,0
2018-03-22T03:40:02.225Z,0
2018-03-22T03:40:28.401Z,0
2018-03-22T03:40:54.494Z,0
2018-03-22T03:41:20.659Z,0
2018-03-22T03:41:46.762Z,0
2018-03-22T03:42:12.899Z,0
2018-03-22T03:42:39.078Z,0
2018-03-22T03:43:05.215Z,0
2018-03-22T03:43:31.349Z,0
2018-03-22T03:43:57.489Z,0
2018-03-22T03:44:23.623Z,0
2018-03-22T03:44:49.756Z,0
2018-03-22T03:45:15.965Z,0
2018-03-22T03:45:42.059Z,0
2018-03-22T03:46:08.191Z,0
2018-03-22T03:46:34.320Z,0
2018-03-22T03:47:00.464Z,0
2018-03-22T03:47:26.620Z,0
2018-03-22T03:47:52.775Z,0
2018-03-22T03:48:18.960Z,0
2018-03-22T03:48:45.074Z,0
2018-03-22T03:49:11.205Z,0
2018-03-22T03:49:37.341Z,0
2018-03-22T03:50:03.480Z,0
2018-03-22T03:50:29.612Z,0
2018-03-22T03:50:55.743Z,0
2018-03-22T03:51:21.879Z,0
2018-03-22T03:51:48.017Z,0
2018-03-22T03:52:14.152Z,0
2018-03-22T03:52:40.279Z,0
2018-03-22T03:53:06.425Z,0
2018-03-22T03:53:32.632Z,0
2018-03-22T03:53:58.715Z,0
2018-03-22T03:54:24.855Z,0
2018-03-22T03:54:50.986Z,0
2018-03-22T03:55:17.122Z,0
2018-03-22T03:55:43.255Z,0
2018-03-22T03:56:09.384Z,0
2018-03-22T03:56:35.523Z,0
2018-03-22T03:57:01.666Z,0
2018-03-22T03:57:27.819Z,0
2018-03-22T03:57:53.960Z,0
2018-03-22T03:58:20.150Z,0
2018-03-22T03:58:46.308Z,0
2018-03-22T03:59:12.441Z,0
2018-03-22T03:59:38.582Z,0
2018-03-22T04:00:04.715Z,0
2018-03-22T04:00:30.853Z,0
2018-03-22T04:00:57.008Z,0
2018-03-22T04:01:23.152Z,0
2018-03-22T04:01:49.284Z,0
2018-03-22T04:02:15.413Z,0
2018-03-22T04:02:41.593Z,0
2018-03-22T04:03:07.723Z,0
2018-03-22T04:03:33.861Z,0
2018-03-22T04:03:59.994Z,0
2018-03-22T04:04:26.154Z,0
2018-03-22T04:04:52.292Z,0
2018-03-22T04:05:18.430Z,0
2018-03-22T04:05:44.567Z,0
2018-03-22T04:06:10.707Z,0
2018-03-22T04:06:36.845Z,0
2018-03-22T04:07:02.979Z,0
2018-03-22T04:07:29.115Z,0
2018-03-22T04:07:55.279Z,0
2018-03-22T04:08:21.413Z,0
2018-03-22T04:08:47.543Z,0
2018-03-22T04:09:13.680Z,0
2018-03-22T04:09:39.816Z,0
2018-03-22T04:10:05.951Z,0
2018-03-22T04:10:32.091Z,0
2018-03-22T04:10:58.228Z,0
2018-03-22T04:11:24.364Z,0
2018-03-22T04:11:50.519Z,0
2018-03-22T04:12:16.656Z,0
2018-03-22T04:12:42.792Z,0
2018-03-22T04:13:08.929Z,0
2018-03-22T04:13:35.073Z,0
2018-03-22T04:14:01.201Z,0
2018-03-22T04:14:27.336Z,0
2018-03-22T04:14:53.468Z,0
2018-03-22T04:15:19.606Z,0
2018-03-22T04:15:45.740Z,0
2018-03-22T04:16:11.890Z,0
2018-03-22T04:16:38.022Z,0
2018-03-22T04:17:04.161Z,0
2018-03-22T04:17:30.296Z,0
2018-03-22T04:17:56.430Z,0
2018-03-22T04:18:22.564Z,0
2018-03-22T04:18:48.702Z,0
2018-03-22T04:19:14.833Z,0
2018-03-22T04:19:40.972Z,0
2018-03-22T04:20:07.131Z,0
2018-03-22T04:20:33.262Z,0
2018-03-22T04:20:59.398Z,0
2018-03-22T04:21:25.537Z,0
2018-03-22T04:21:51.664Z,0
2018-03-22T04:22:17.809Z,0
2018-03-22T04:22:43.947Z,0
2018-03-22T04:23:10.078Z,0
2018-03-22T04:23:36.219Z,0
2018-03-22T04:24:02.359Z,0
2018-03-22T04:24:28.543Z,0
2018-03-22T04:24:54.679Z,0
2018-03-22T04:25:20.813Z,0
2018-03-22T04:25:46.948Z,0
2018-03-22T04:26:13.083Z,0
2018-03-22T04:26:39.213Z,0
2018-03-22T04:27:05.379Z,0
2018-03-22T04:27:31.520Z,0
2018-03-22T04:27:57.648Z,0
2018-03-22T04:28:23.788Z,0
2018-03-22T04:28:49.924Z,0
2018-03-22T04:29:16.053Z,0
2018-03-22T04:29:42.192Z,0
2018-03-22T04:30:08.334Z,0
2018-03-22T04:30:34.472Z,0
2018-03-22T04:31:00.603Z,0
2018-03-22T04:31:26.744Z,0
2018-03-22T04:31:52.879Z,0
2018-03-22T04:32:19.021Z,0
2018-03-22T04:32:45.159Z,0
2018-03-22T04:33:11.288Z,0
2018-03-22T04:33:37.424Z,0
2018-03-22T04:34:03.560Z,0
2018-03-22T04:34:29.726Z,0
2018-03-22T04:34:55.860Z,0
2018-03-22T04:35:21.993Z,0
2018-03-22T04:35:48.165Z,0
2018-03-22T04:36:14.268Z,0
2018-03-22T04:36:40.403Z,0
2018-03-22T04:37:06.543Z,0
2018-03-22T04:37:32.747Z,0
2018-03-22T04:37:58.885Z,0
2018-03-22T04:38:25.019Z,0
2018-03-22T04:38:51.159Z,0
2018-03-22T04:39:17.294Z,0
2018-03-22T04:39:43.426Z,0
2018-03-22T04:40:09.562Z,0
2018-03-22T04:40:35.722Z,0
2018-03-22T04:41:01.859Z,0
2018-03-22T04:41:28.004Z,0
2018-03-22T04:41:54.132Z,0
2018-03-22T04:42:20.267Z,0
2018-03-22T04:42:46.426Z,0
2018-03-22T04:43:12.567Z,0
2018-03-22T04:43:38.704Z,0
2018-03-22T04:44:04.829Z,0
2018-03-22T04:44:30.967Z,0
2018-03-22T04:44:57.109Z,0
2018-03-22T04:45:23.236Z,0
2018-03-22T04:45:49.373Z,0
2018-03-22T04:46:15.509Z,0
2018-03-22T04:46:41.647Z,0
2018-03-22T04:47:07.784Z,0
2018-03-22T04:47:33.913Z,0
2018-03-22T04:48:00.077Z,0
2018-03-22T04:48:26.219Z,0
2018-03-22T04:48:52.356Z,0
2018-03-22T04:49:18.485Z,0
2018-03-22T04:49:44.623Z,0
2018-03-22T04:50:10.762Z,0
2018-03-22T04:50:36.898Z,0
2018-03-22T04:51:03.032Z,0
2018-03-22T04:51:29.168Z,0
2018-03-22T04:51:55.303Z,0
2018-03-22T04:52:21.442Z,0
2018-03-22T04:52:47.582Z,0
2018-03-22T04:53:13.743Z,0
2018-03-22T04:53:39.896Z,0
2018-03-22T04:54:06.072Z,0
2018-03-22T04:54:32.191Z,0
2018-03-22T04:54:58.327Z,0
2018-03-22T04:55:24.475Z,0
2018-03-22T04:55:50.634Z,0
2018-03-22T04:56:16.771Z,0
2018-03-22T04:56:42.902Z,0
2018-03-22T04:57:09.046Z,0
2018-03-22T04:57:35.179Z,0
2018-03-22T04:58:01.319Z,0
2018-03-22T04:58:27.460Z,0
2018-03-22T04:58:53.615Z,0
2018-03-22T04:59:19.762Z,0
2018-03-22T04:59:45.889Z,0
2018-03-22T05:00:12.045Z,0
2018-03-22T05:00:38.187Z,0
2018-03-22T05:01:04.370Z,0
2018-03-22T05:01:30.507Z,0
2018-03-22T05:01:56.641Z,0
2018-03-22T05:02:22.803Z,0
2018-03-22T05:02:48.935Z,0
2018-03-22T05:03:15.086Z,0
2018-03-22T05:03:41.210Z,0
2018-03-22T05:04:07.372Z,0
2018-03-22T05:04:33.502Z,0
2018-03-22T05:04:59.636Z,4
2018-03-22T05:05:25.791Z,4
2018-03-22T05:05:51.961Z,0
2018-03-22T05:06:18.095Z,0
2018-03-22T05:06:44.227Z,0
2018-03-22T05:07:10.365Z,0
2018-03-22T05:07:36.496Z,0
2018-03-22T05:08:02.635Z,4
2018-03-22T05:08:28.772Z,4
2018-03-22T05:08:54.910Z,4
2018-03-22T05:09:21.040Z,4
2018-03-22T05:09:47.181Z,4
2018-03-22T05:10:13.318Z,4
2018-03-22T05:10:39.467Z,4
2018-03-22T05:11:05.604Z,4
2018-03-22T05:11:31.740Z,8
2018-03-22T05:11:57.876Z,8
2018-03-22T05:12:24.036Z,8
2018-03-22T05:12:50.175Z,8
2018-03-22T05:13:16.301Z,8
2018-03-22T05:13:42.443Z,4
2018-03-22T05:14:08.577Z,8
2018-03-22T05:14:34.712Z,8
2018-03-22T05:15:00.847Z,8
2018-03-22T05:15:26.988Z,8
2018-03-22T05:15:53.123Z,8
2018-03-22T05:16:19.268Z,12
2018-03-22T05:16:45.428Z,8
2018-03-22T05:17:11.556Z,12
2018-03-22T05:17:37.693Z,12
2018-03-22T05:18:03.830Z,12
2018-03-22T05:18:29.967Z,16
2018-03-22T05:18:56.097Z,16
2018-03-22T05:19:22.233Z,16
2018-03-22T05:19:48.377Z,16
2018-03-22T05:20:14.540Z,20
2018-03-22T05:20:40.701Z,20
2018-03-22T05:21:06.859Z,16
2018-03-22T05:21:32.999Z,20
2018-03-22T05:21:59.132Z,20
2018-03-22T05:22:25.266Z,16
2018-03-22T05:22:51.401Z,24
2018-03-22T05:23:17.546Z,24
2018-03-22T05:23:43.673Z,24
2018-03-22T05:24:09.813Z,28
2018-03-22T05:24:35.945Z,32
2018-03-22T05:25:02.141Z,36
2018-03-22T05:25:28.212Z,36
2018-03-22T05:25:54.340Z,40
2018-03-22T05:26:20.486Z,48
2018-03-22T05:26:46.620Z,52
2018-03-22T05:27:12.756Z,48
2018-03-22T05:27:38.887Z,44
2018-03-22T05:28:05.025Z,52
2018-03-22T05:28:31.164Z,56
2018-03-22T05:28:57.296Z,60
2018-03-22T05:29:23.438Z,56
2018-03-22T05:29:49.577Z,60
2018-03-22T05:30:15.712Z,68
2018-03-22T05:30:41.851Z,72
2018-03-22T05:31:07.983Z,68
2018-03-22T05:31:34.121Z,64
2018-03-22T05:32:00.270Z,64
2018-03-22T05:32:26.411Z,76
2018-03-22T05:32:52.571Z,76
2018-03-22T05:33:18.705Z,80
2018-03-22T05:33:44.856Z,84
2018-03-22T05:34:10.994Z,96
2018-03-22T05:34:37.127Z,116
2018-03-22T05:35:03.265Z,112
2018-03-22T05:35:29.428Z,116
2018-03-22T05:35:55.563Z,112
2018-03-22T05:36:21.695Z,108
2018-03-22T05:36:47.828Z,108
2018-03-22T05:37:13.963Z,120
2018-03-22T05:37:40.097Z,132
2018-03-22T05:38:06.238Z,152
2018-03-22T05:38:32.396Z,168
2018-03-22T05:38:58.539Z,168
2018-03-22T05:39:24.664Z,172
2018-03-22T05:39:50.845Z,180
2018-03-22T05:40:16.937Z,192
2018-03-22T05:40:43.080Z,208
2018-03-22T05:41:09.218Z,196
2018-03-22T05:41:35.352Z,204
2018-03-22T05:42:01.511Z,240
2018-03-22T05:42:27.653Z,280
2018-03-22T05:42:53.792Z,264
2018-03-22T05:43:19.929Z,256
2018-03-22T05:43:46.091Z,260
2018-03-22T05:44:12.234Z,276
2018-03-22T05:44:38.389Z,256
2018-03-22T05:45:04.526Z,264
2018-03-22T05:45:30.658Z,296
2018-03-22T05:45:56.818Z,288
2018-03-22T05:46:22.973Z,296
2018-03-22T05:46:49.115Z,288
2018-03-22T05:47:15.252Z,272
2018-03-22T05:47:41.385Z,260
2018-03-22T05:48:07.551Z,256
2018-03-22T05:48:33.690Z,284
2018-03-22T05:48:59.820Z,268
2018-03-22T05:49:25.956Z,248
2018-03-22T05:49:52.096Z,248
2018-03-22T05:50:18.282Z,272
2018-03-22T05:50:44.415Z,312
2018-03-22T05:51:10.548Z,344
2018-03-22T05:51:36.709Z,348
2018-03-22T05:52:02.838Z,336
2018-03-22T05:52:28.973Z,328
2018-03-22T05:52:55.114Z,356
2018-03-22T05:53:21.247Z,384
2018-03-22T05:53:47.386Z,384
2018-03-22T05:54:13.520Z,392
2018-03-22T05:54:39.653Z,484
2018-03-22T05:55:05.793Z,552
2018-03-22T05:55:31.934Z,564
2018-03-22T05:55:58.066Z,516
2018-03-22T05:56:24.200Z,440
2018-03-22T05:56:50.334Z,412
2018-03-22T05:57:16.469Z,484
2018-03-22T05:57:42.603Z,500
2018-03-22T05:58:08.746Z,464
2018-03-22T05:58:34.882Z,460
2018-03-22T05:59:01.020Z,568
2018-03-22T05:59:27.155Z,564
2018-03-22T05:59:53.289Z,468
2018-03-22T06:00:19.427Z,500
2018-03-22T06:00:45.557Z,484
2018-03-22T06:01:11.698Z,488
2018-03-22T06:01:37.830Z,556
2018-03-22T06:02:03.966Z,632
2018-03-22T06:02:30.104Z,836
2018-03-22T06:02:56.242Z,864
2018-03-22T06:03:22.374Z,824
2018-03-22T06:03:48.511Z,800
2018-03-22T06:04:14.651Z,676
2018-03-22T06:04:40.788Z,636
2018-03-22T06:05:06.945Z,696
2018-03-22T06:05:33.076Z,776
2018-03-22T06:05:59.206Z,744
2018-03-22T06:06:25.344Z,852
2018-03-22T06:06:51.475Z,996
2018-03-22T06:07:17.609Z,1084
2018-03-22T06:07:43.746Z,1092
2018-03-22T06:08:09.883Z,1008
2018-03-22T06:08:36.042Z,840
2018-03-22T06:09:02.177Z,912
2018-03-22T06:09:28.337Z,932
2018-03-22T06:09:54.476Z,856
2018-03-22T06:10:20.607Z,964
2018-03-22T06:10:46.747Z,1104
2018-03-22T06:11:12.891Z,1124
2018-03-22T06:11:39.022Z,1248
2018-03-22T06:12:05.160Z,1200
2018-03-22T06:12:31.327Z,1556
2018-03-22T06:12:57.465Z,1524
2018-03-22T06:13:23.599Z,1420
2018-03-22T06:13:49.736Z,1532
2018-03-22T06:14:15.872Z,1472
2018-03-22T06:14:42.009Z,1312
2018-03-22T06:15:08.143Z,1264
2018-03-22T06:15:34.305Z,1076
2018-03-22T06:16:00.435Z,900
2018-03-22T06:16:26.572Z,828
2018-03-22T06:16:52.707Z,760
2018-03-22T06:17:18.843Z,772
2018-03-22T06:17:44.978Z,852
2018-03-22T06:18:11.115Z,840
2018-03-22T06:18:37.252Z,872
2018-03-22T06:19:03.381Z,1048
2018-03-22T06:19:29.516Z,1212
2018-03-22T06:19:55.654Z,1296
2018-03-22T06:20:21.791Z,1140
2018-03-22T06:20:47.930Z,1208
2018-03-22T06:21:14.066Z,1188
2018-03-22T06:21:40.213Z,1088
2018-03-22T06:22:06.344Z,1088